Time;durP1;ratioP1;P1;durP2;ratioP2;P2;SDS_P1;SDS_P2;PMS_P1;PMS_P2;Temp;Humidity;BMP_temperature;BMP_pressure;BME280_temperature;BME280_humidity;BME280_pressure;Samples;Min_cycle;Max_cycle;Signal;HPM_P1;HPM_P2
2022/03/30 00:01:55;;;;;;;8.10;5.40;;;7.50;99.90;;;;;;5049544;28;20246;-89
2022/03/30 00:04:21;;;;;;;6.57;4.60;;;7.60;99.90;;;;;;5049657;28;20244;-84
2022/03/30 00:06:47;;;;;;;8.37;5.47;;;7.60;99.90;;;;;;5066077;28;20303;-85
2022/03/30 00:09:13;;;;;;;10.57;4.63;;;7.70;99.90;;;;;;5082365;28;20220;-87
2022/03/30 00:11:39;;;;;;;8.80;5.47;;;7.70;99.90;;;;;;5066051;28;20259;-86
2022/03/30 00:14:04;;;;;;;9.30;4.10;;;7.70;99.90;;;;;;5065887;28;20553;-85
2022/03/30 00:16:30;;;;;;;9.43;4.53;;;7.70;99.90;;;;;;5048694;28;20221;-85
2022/03/30 00:18:56;;;;;;;10.20;3.43;;;7.70;99.90;;;;;;5065237;28;20224;-86
2022/03/30 00:21:22;;;;;;;4.43;3.23;;;7.70;99.90;;;;;;5049118;28;20939;-85
2022/03/30 00:23:48;;;;;;;6.10;3.67;;;7.90;99.90;;;;;;5048151;28;20232;-84
2022/03/30 00:26:14;;;;;;;6.47;2.90;;;7.90;99.90;;;;;;5049387;28;21004;-84
2022/03/30 00:28:40;;;;;;;3.77;2.83;;;7.90;99.90;;;;;;5031753;28;20322;-85
2022/03/30 00:31:06;;;;;;;2.90;1.83;;;7.90;99.90;;;;;;5082352;28;20221;-85
2022/03/30 00:33:31;;;;;;;4.13;2.10;;;7.90;99.90;;;;;;5065097;28;20230;-86
2022/03/30 00:35:57;;;;;;;3.53;3.23;;;7.90;99.90;;;;;;5048641;28;20573;-84
2022/03/30 00:38:23;;;;;;;2.87;2.67;;;7.80;99.90;;;;;;5048463;28;20308;-86
2022/03/30 00:40:49;;;;;;;7.43;2.07;;;7.80;99.90;;;;;;5082364;28;20280;-85
2022/03/30 00:43:15;;;;;;;1.30;1.20;;;7.80;99.90;;;;;;5048495;28;20225;-85
2022/03/30 00:45:41;;;;;;;0.90;0.90;;;7.70;99.90;;;;;;5047910;28;20268;-87
2022/03/30 00:48:07;;;;;;;1.27;0.90;;;7.70;99.90;;;;;;5082556;28;20239;-85
2022/03/30 00:50:33;;;;;;;1.43;0.57;;;7.60;99.90;;;;;;5048389;28;20193;-85
2022/03/30 00:52:59;;;;;;;2.30;2.10;;;7.50;99.90;;;;;;5064936;28;20762;-85
2022/03/30 00:55:25;;;;;;;0.97;0.97;;;7.40;99.90;;;;;;5048183;28;20225;-85
2022/03/30 00:57:53;;;;;;;2.37;0.80;;;7.30;99.90;;;;;;5081727;28;20744;-85
2022/03/30 01:00:19;;;;;;;0.60;0.60;;;7.20;99.90;;;;;;5047981;28;20221;-85
2022/03/30 01:02:47;;;;;;;0.80;0.80;;;7.20;99.90;;;;;;5047281;28;20274;-85
2022/03/30 01:05:14;;;;;;;1.40;1.10;;;7.20;99.90;;;;;;5046898;28;20181;-86
2022/03/30 01:07:39;;;;;;;2.17;2.00;;;7.10;99.90;;;;;;5044229;28;20237;-88
2022/03/30 01:10:07;;;;;;;1.37;1.13;;;7.10;99.90;;;;;;5065523;28;20216;-85
2022/03/30 01:12:36;;;;;;;2.17;1.33;;;7.10;99.90;;;;;;5065831;28;20213;-86
2022/03/30 01:15:03;;;;;;;1.33;0.93;;;7.10;99.90;;;;;;5080960;28;20216;-84
2022/03/30 01:17:29;;;;;;;0.50;0.50;;;7.00;99.90;;;;;;5081350;28;20272;-86
2022/03/30 01:19:55;;;;;;;0.20;0.20;;;7.00;99.90;;;;;;5064995;28;20276;-85
2022/03/30 01:22:21;;;;;;;0.33;0.33;;;7.00;99.90;;;;;;5081247;28;20312;-84
2022/03/30 01:24:47;;;;;;;0.43;0.43;;;7.00;99.90;;;;;;5047538;28;20227;-85
2022/03/30 01:27:13;;;;;;;3.83;1.00;;;7.00;99.90;;;;;;5064561;28;20308;-84
2022/03/30 01:32:27;;;;;;;0.30;0.30;;;7.00;99.90;;;;;;5077125;28;20642;-87
2022/03/30 01:34:54;;;;;;;0.30;0.30;;;7.00;99.90;;;;;;5046371;28;20185;-84
2022/03/30 01:37:20;;;;;;;0.30;0.30;;;6.90;99.90;;;;;;5047096;28;20304;-85
2022/03/30 01:39:46;;;;;;;0.30;0.30;;;6.90;99.90;;;;;;5046476;28;20327;-84
2022/03/30 01:42:12;;;;;;;0.30;0.30;;;6.90;99.90;;;;;;5081385;28;20233;-85
2022/03/30 01:44:38;;;;;;;0.57;0.53;;;6.80;99.90;;;;;;5080661;28;20222;-86
2022/03/30 01:47:05;;;;;;;2.20;0.67;;;6.80;99.90;;;;;;5081290;28;20201;-84
2022/03/30 01:49:31;;;;;;;0.30;0.30;;;6.80;99.90;;;;;;5063764;28;20253;-84
2022/03/30 01:51:58;;;;;;;0.23;0.23;;;6.80;99.90;;;;;;5045295;28;21152;-84
2022/03/30 01:54:27;;;;;;;0.20;0.20;;;6.70;99.90;;;;;;5064420;28;20601;-88
2022/03/30 01:56:55;;;;;;;1.33;1.33;;;6.70;99.90;;;;;;5080180;28;20705;-85
2022/03/30 01:59:22;;;;;;;0.40;0.40;;;6.70;99.90;;;;;;5064832;28;20189;-83
2022/03/30 02:01:48;;;;;;;0.20;0.20;;;6.70;99.90;;;;;;5081133;28;20241;-85
2022/03/30 02:04:14;;;;;;;0.20;0.20;;;6.70;99.90;;;;;;5065383;28;20278;-84
2022/03/30 02:06:40;;;;;;;0.10;0.10;;;6.70;99.90;;;;;;5063888;28;20217;-84
2022/03/30 02:09:08;;;;;;;0.50;0.50;;;6.70;99.90;;;;;;5065131;28;20220;-84
2022/03/30 02:11:34;;;;;;;0.20;0.20;;;6.70;99.90;;;;;;5046566;28;20213;-86
2022/03/30 02:14:00;;;;;;;0.47;0.47;;;6.70;99.90;;;;;;5047496;28;20185;-83
2022/03/30 02:16:27;;;;;;;0.97;0.67;;;6.60;99.90;;;;;;5079948;28;20239;-84
2022/03/30 02:18:53;;;;;;;0.30;0.30;;;6.70;99.90;;;;;;5046758;28;20224;-86
2022/03/30 02:21:19;;;;;;;0.20;0.20;;;6.70;99.90;;;;;;5046585;28;20224;-84
2022/03/30 02:23:46;;;;;;;0.20;0.20;;;6.60;99.90;;;;;;5046360;28;20220;-84
2022/03/30 02:26:15;;;;;;;0.30;0.30;;;6.50;99.90;;;;;;5081214;28;20204;-86
2022/03/30 02:28:51;;;;;;;0.30;0.30;;;6.50;99.90;;;;;;5061126;28;20217;-88
2022/03/30 02:31:21;;;;;;;0.37;0.23;;;6.40;99.90;;;;;;5077165;28;20460;-84
2022/03/30 02:33:47;;;;;;;0.33;0.33;;;6.40;99.90;;;;;;5043944;28;20205;-84
2022/03/30 02:36:14;;;;;;;0.50;0.50;;;6.50;99.90;;;;;;5064558;28;20274;-85
2022/03/30 02:38:40;;;;;;;0.23;0.23;;;6.50;99.90;;;;;;5065041;28;20546;-84
2022/03/30 02:41:07;;;;;;;0.37;0.37;;;6.40;99.90;;;;;;5080191;28;20637;-84
2022/03/30 02:43:34;;;;;;;0.37;0.37;;;6.50;99.90;;;;;;5046784;28;20217;-86
2022/03/30 02:46:00;;;;;;;0.57;0.57;;;6.50;99.90;;;;;;5065179;28;20219;-86
2022/03/30 02:48:29;;;;;;;0.10;0.10;;;6.40;99.90;;;;;;5063586;28;20225;-84
2022/03/30 02:51:02;;;;;;;0.23;0.23;;;6.30;99.90;;;;;;5060135;28;20618;-85
2022/03/30 02:53:28;;;;;;;0.20;0.20;;;6.30;99.90;;;;;;5047675;28;20229;-88
2022/03/30 02:55:55;;;;;;;0.30;0.30;;;6.40;99.90;;;;;;5081177;28;20235;-84
2022/03/30 02:58:21;;;;;;;0.20;0.20;;;6.40;99.90;;;;;;5047543;28;20240;-84
2022/03/30 03:00:46;;;;;;;0.23;0.23;;;6.40;99.90;;;;;;5057307;28;20217;-87
2022/03/30 03:03:12;;;;;;;0.30;0.30;;;6.40;99.90;;;;;;5081682;28;20302;-87
2022/03/30 03:05:41;;;;;;;0.37;0.37;;;6.30;99.90;;;;;;5065058;28;20189;-85
2022/03/30 03:08:08;;;;;;;0.60;0.50;;;6.40;99.90;;;;;;5066096;28;20243;-85
2022/03/30 03:10:38;;;;;;;1.10;0.43;;;6.30;99.90;;;;;;5063178;28;20221;-84
2022/03/30 03:13:04;;;;;;;0.73;0.47;;;6.40;99.90;;;;;;5080120;28;20597;-84
2022/03/30 03:15:35;;;;;;;0.50;0.50;;;6.30;99.90;;;;;;5080006;28;20213;-85
2022/03/30 03:18:02;;;;;;;0.27;0.27;;;6.30;99.90;;;;;;5053784;28;20286;-84
2022/03/30 03:20:28;;;;;;;0.30;0.30;;;6.30;99.90;;;;;;5063779;28;20198;-87
2022/03/30 03:22:55;;;;;;;0.10;0.10;;;6.30;99.90;;;;;;5064942;28;20188;-88
2022/03/30 03:25:22;;;;;;;0.33;0.33;;;6.30;99.90;;;;;;5046028;28;20238;-86
2022/03/30 03:27:47;;;;;;;0.23;0.23;;;6.40;99.90;;;;;;5046363;28;20584;-84
2022/03/30 03:30:14;;;;;;;0.50;0.50;;;6.30;99.90;;;;;;5080050;28;20666;-84
2022/03/30 03:32:41;;;;;;;0.43;0.43;;;6.30;99.90;;;;;;5078538;28;20216;-84
2022/03/30 03:35:09;;;;;;;0.37;0.37;;;6.30;99.90;;;;;;5063408;28;20239;-84
2022/03/30 03:37:38;;;;;;;0.47;0.47;;;6.30;99.90;;;;;;5045516;28;20596;-88
2022/03/30 03:40:06;;;;;;;0.30;0.30;;;6.40;99.90;;;;;;5045503;28;20282;-89
2022/03/30 03:42:32;;;;;;;0.70;0.70;;;6.30;99.90;;;;;;5063940;28;20632;-85
2022/03/30 03:44:58;;;;;;;0.87;0.30;;;6.30;99.90;;;;;;5062423;28;20219;-87
2022/03/30 03:47:24;;;;;;;0.40;0.40;;;6.20;99.90;;;;;;5062596;28;20267;-86
2022/03/30 03:49:50;;;;;;;0.77;0.57;;;6.20;99.90;;;;;;5046962;28;20196;-84
2022/03/30 03:52:16;;;;;;;1.07;1.07;;;6.20;99.90;;;;;;5053744;28;20241;-84
2022/03/30 03:54:42;;;;;;;0.20;0.20;;;6.20;99.90;;;;;;5046146;28;20252;-87
2022/03/30 03:57:08;;;;;;;1.03;0.40;;;6.20;99.90;;;;;;5062470;28;20269;-86
2022/03/30 03:59:35;;;;;;;1.13;0.70;;;6.20;99.90;;;;;;5062620;28;20193;-86
2022/03/30 04:02:02;;;;;;;0.40;0.40;;;6.30;99.90;;;;;;5063316;28;20186;-84
2022/03/30 04:04:28;;;;;;;0.20;0.20;;;6.30;99.90;;;;;;5065003;28;20651;-84
2022/03/30 04:06:54;;;;;;;0.30;0.30;;;6.30;99.90;;;;;;5064660;28;20225;-87
2022/03/30 04:09:19;;;;;;;0.30;0.30;;;6.30;99.90;;;;;;5065341;28;20225;-86
2022/03/30 04:11:45;;;;;;;0.33;0.33;;;6.40;99.90;;;;;;5066630;28;20225;-87
2022/03/30 04:14:11;;;;;;;0.57;0.57;;;6.40;99.90;;;;;;5081745;28;20217;-85
2022/03/30 04:16:37;;;;;;;0.30;0.30;;;6.40;99.90;;;;;;5046603;28;20232;-84
2022/03/30 04:19:02;;;;;;;2.70;1.03;;;6.50;99.90;;;;;;5063649;28;20225;-88
2022/03/30 04:21:28;;;;;;;0.63;0.63;;;6.50;99.90;;;;;;5063827;28;20705;-84
2022/03/30 04:23:54;;;;;;;0.50;0.50;;;6.40;99.90;;;;;;5063861;28;20237;-84
2022/03/30 04:26:20;;;;;;;0.87;0.53;;;6.40;99.90;;;;;;5047853;28;21077;-87
2022/03/30 04:28:45;;;;;;;0.50;0.50;;;6.30;99.90;;;;;;5046607;28;20228;-86
2022/03/30 04:31:12;;;;;;;4.33;0.63;;;6.20;99.90;;;;;;5081505;28;20216;-88
2022/03/30 04:33:39;;;;;;;0.50;0.50;;;6.20;99.90;;;;;;5064192;28;20300;-84
2022/03/30 04:36:05;;;;;;;0.30;0.30;;;6.20;99.90;;;;;;5065224;28;20336;-84
2022/03/30 04:38:32;;;;;;;0.27;0.27;;;6.10;99.90;;;;;;5081623;28;20795;-84
2022/03/30 04:40:58;;;;;;;0.60;0.60;;;6.10;99.90;;;;;;5065998;28;20192;-86
2022/03/30 04:43:24;;;;;;;0.47;0.40;;;6.10;99.90;;;;;;5056042;28;20220;-84
2022/03/30 04:45:50;;;;;;;0.30;0.30;;;6.00;99.90;;;;;;5048176;28;20221;-86
2022/03/30 04:48:16;;;;;;;0.40;0.40;;;6.00;99.90;;;;;;5047794;28;20331;-84
2022/03/30 04:50:42;;;;;;;0.83;0.83;;;6.00;99.90;;;;;;5081128;28;20275;-83
2022/03/30 04:53:07;;;;;;;0.30;0.30;;;5.90;99.90;;;;;;5064434;28;20233;-86
2022/03/30 04:55:33;;;;;;;0.30;0.30;;;5.90;99.90;;;;;;5080942;28;20259;-85
2022/03/30 04:57:59;;;;;;;0.30;0.30;;;5.90;99.90;;;;;;5079511;28;20362;-87
2022/03/30 05:00:25;;;;;;;2.00;0.97;;;5.80;99.90;;;;;;5062707;28;20225;-84
2022/03/30 05:02:50;;;;;;;5.00;0.50;;;5.80;99.90;;;;;;5061951;28;20708;-88
2022/03/30 05:05:16;;;;;;;1.07;0.70;;;5.80;99.90;;;;;;5061059;28;20625;-86
2022/03/30 05:07:42;;;;;;;0.57;0.57;;;5.80;99.90;;;;;;5076420;28;21062;-87
2022/03/30 05:10:13;;;;;;;0.30;0.30;;;5.70;99.90;;;;;;5078759;28;20707;-85
2022/03/30 05:12:39;;;;;;;0.70;0.70;;;5.70;99.90;;;;;;5047612;28;20280;-86
2022/03/30 05:15:06;;;;;;;0.40;0.40;;;5.60;99.90;;;;;;5081020;28;20268;-84
2022/03/30 05:17:32;;;;;;;0.20;0.20;;;5.60;99.90;;;;;;5064157;28;20262;-85
2022/03/30 05:19:58;;;;;;;0.47;0.43;;;5.50;99.90;;;;;;5065423;28;20199;-87
2022/03/30 05:22:25;;;;;;;0.30;0.30;;;5.50;99.90;;;;;;5065772;28;20236;-87
2022/03/30 05:24:50;;;;;;;0.30;0.30;;;5.50;99.90;;;;;;5047511;28;20609;-86
2022/03/30 05:27:16;;;;;;;0.60;0.60;;;5.50;99.90;;;;;;5065757;28;20220;-88
2022/03/30 05:29:42;;;;;;;0.37;0.37;;;5.50;99.90;;;;;;5048508;28;21191;-88
2022/03/30 05:32:08;;;;;;;2.20;1.07;;;5.50;99.90;;;;;;5066232;28;20793;-87
2022/03/30 05:34:33;;;;;;;0.50;0.50;;;5.40;99.90;;;;;;5045718;28;20223;-87
2022/03/30 05:36:59;;;;;;;0.40;0.40;;;5.50;99.90;;;;;;5061894;28;21112;-88
2022/03/30 05:39:25;;;;;;;3.80;0.50;;;5.50;99.90;;;;;;5063742;28;20681;-88
2022/03/30 05:41:54;;;;;;;0.70;0.70;;;5.60;99.90;;;;;;5061373;28;20265;-87
2022/03/30 05:44:21;;;;;;;0.30;0.30;;;5.60;99.90;;;;;;5062126;28;20555;-84
2022/03/30 05:46:46;;;;;;;1.27;0.33;;;5.60;99.90;;;;;;5047547;28;20252;-82
2022/03/30 05:49:12;;;;;;;0.60;0.60;;;5.70;99.90;;;;;;5064713;28;20694;-88
2022/03/30 05:51:38;;;;;;;1.13;0.60;;;5.70;99.90;;;;;;5045973;28;20303;-87
2022/03/30 05:54:04;;;;;;;2.83;1.03;;;5.80;99.90;;;;;;5045737;28;20594;-87
2022/03/30 05:59:15;;;;;;;0.47;0.47;;;5.90;99.90;;;;;;5065059;28;20185;-88
2022/03/30 06:01:41;;;;;;;0.43;0.43;;;6.00;99.90;;;;;;5047455;28;20221;-86
2022/03/30 06:04:07;;;;;;;0.93;0.77;;;6.00;99.90;;;;;;5063369;28;20247;-85
2022/03/30 06:06:33;;;;;;;1.87;0.57;;;6.10;99.90;;;;;;5044890;28;20240;-85
2022/03/30 06:09:00;;;;;;;0.30;0.30;;;6.20;99.90;;;;;;5061206;28;20707;-89
2022/03/30 06:11:25;;;;;;;0.80;0.77;;;6.20;99.90;;;;;;5044087;28;20193;-87
2022/03/30 06:13:51;;;;;;;0.20;0.20;;;6.20;99.90;;;;;;5061223;28;20199;-84
2022/03/30 06:16:17;;;;;;;0.57;0.57;;;6.30;99.90;;;;;;5061708;28;20224;-86
2022/03/30 06:18:43;;;;;;;0.70;0.70;;;6.50;99.90;;;;;;5080115;28;20252;-86
2022/03/30 06:21:10;;;;;;;3.80;0.40;;;6.60;99.90;;;;;;5063100;28;20331;-85
2022/03/30 06:23:36;;;;;;;0.20;0.20;;;6.60;99.90;;;;;;5046688;28;20193;-85
2022/03/30 06:26:02;;;;;;;0.50;0.50;;;6.70;99.90;;;;;;5066910;28;20186;-85
2022/03/30 06:28:29;;;;;;;6.17;0.63;;;6.70;99.90;;;;;;5067010;28;20221;-85
2022/03/30 06:30:56;;;;;;;0.40;0.40;;;6.90;99.90;;;;;;5051221;28;20232;-84
2022/03/30 06:33:22;;;;;;;0.20;0.20;;;7.00;99.90;;;;;;5068381;28;20249;-85
2022/03/30 06:35:48;;;;;;;0.50;0.50;;;7.00;99.90;;;;;;5050431;28;20241;-84
2022/03/30 06:38:14;;;;;;;0.60;0.60;;;7.10;99.90;;;;;;5051402;28;20910;-84
2022/03/30 06:40:40;;;;;;;0.60;0.60;;;7.20;99.90;;;;;;5050690;28;20236;-84
2022/03/30 06:43:05;;;;;;;0.60;0.60;;;7.40;99.90;;;;;;5067304;28;20209;-83
2022/03/30 06:45:31;;;;;;;0.30;0.30;;;7.40;99.90;;;;;;5084058;28;20224;-83
2022/03/30 06:47:57;;;;;;;7.47;0.53;;;7.50;99.90;;;;;;5084146;28;20244;-84
2022/03/30 06:50:24;;;;;;;0.30;0.30;;;7.50;99.90;;;;;;5050084;28;20300;-84
2022/03/30 06:52:50;;;;;;;0.67;0.43;;;7.60;99.90;;;;;;5050499;28;20718;-84
2022/03/30 06:55:16;;;;;;;2.33;0.57;;;7.60;99.90;;;;;;5066870;28;20228;-85
2022/03/30 06:57:42;;;;;;;0.80;0.80;;;7.50;99.90;;;;;;5067147;28;20244;-86
2022/03/30 07:00:13;;;;;;;0.40;0.40;;;7.30;99.90;;;;;;5067110;28;20213;-84
2022/03/30 07:02:39;;;;;;;0.30;0.30;;;7.20;99.90;;;;;;5049814;28;20208;-84
2022/03/30 07:05:06;;;;;;;5.20;0.50;;;7.30;99.90;;;;;;5067278;28;20645;-85
2022/03/30 07:10:18;;;;;;;0.30;0.30;;;7.70;99.90;;;;;;5068011;28;20221;-84
2022/03/30 07:12:48;;;;;;;0.47;0.47;;;7.90;99.90;;;;;;5066427;28;20286;-85
2022/03/30 07:15:16;;;;;;;2.60;0.57;;;7.90;99.90;;;;;;5066653;28;20224;-85
2022/03/30 07:17:50;;;;;;;0.50;0.50;;;7.70;99.90;;;;;;5049667;28;20954;-84
2022/03/30 07:20:16;;;;;;;0.40;0.37;;;7.60;99.90;;;;;;5068536;28;20200;-84
2022/03/30 07:22:43;;;;;;;0.40;0.40;;;7.40;99.90;;;;;;5066393;28;20225;-86
2022/03/30 07:25:10;;;;;;;0.30;0.30;;;7.40;99.90;;;;;;5049253;28;20229;-86
2022/03/30 07:27:40;;;;;;;0.20;0.20;;;7.30;99.90;;;;;;5082770;28;20241;-85
2022/03/30 07:30:06;;;;;;;0.90;0.57;;;7.10;99.90;;;;;;5065865;28;20227;-86
2022/03/30 07:32:32;;;;;;;0.47;0.47;;;7.10;99.90;;;;;;5066610;28;20198;-85
2022/03/30 07:34:58;;;;;;;0.97;0.40;;;7.10;99.90;;;;;;5067099;28;20886;-82
2022/03/30 07:37:24;;;;;;;0.20;0.20;;;7.00;99.90;;;;;;5048241;28;21096;-83
2022/03/30 07:39:50;;;;;;;0.67;0.67;;;7.00;99.90;;;;;;5082284;28;20232;-83
2022/03/30 07:42:16;;;;;;;4.43;0.90;;;7.00;99.90;;;;;;5067563;28;20229;-86
2022/03/30 07:44:42;;;;;;;0.37;0.37;;;7.00;99.90;;;;;;5033226;28;20182;-83
2022/03/30 07:47:07;;;;;;;0.73;0.73;;;7.00;99.90;;;;;;5066274;28;20197;-84
2022/03/30 07:49:33;;;;;;;1.73;1.73;;;7.10;99.90;;;;;;5080778;28;20224;-85
2022/03/30 07:52:03;;;;;;;0.37;0.37;;;7.10;99.90;;;;;;5064953;28;20217;-86
2022/03/30 07:54:29;;;;;;;0.40;0.40;;;7.20;99.90;;;;;;5081566;28;20236;-82
2022/03/30 07:56:55;;;;;;;0.30;0.30;;;7.30;99.90;;;;;;5066150;28;20237;-87
2022/03/30 07:59:21;;;;;;;0.30;0.30;;;7.40;99.90;;;;;;5050264;28;20192;-82
2022/03/30 08:01:47;;;;;;;3.03;0.80;;;7.40;99.90;;;;;;5065301;28;20351;-83
2022/03/30 08:04:14;;;;;;;1.23;0.40;;;7.70;99.90;;;;;;5065847;28;20225;-85
2022/03/30 08:06:40;;;;;;;0.27;0.27;;;7.50;99.90;;;;;;5048241;28;20220;-83
2022/03/30 08:09:06;;;;;;;0.60;0.60;;;7.50;99.90;;;;;;5065244;28;20678;-84
2022/03/30 08:11:31;;;;;;;0.60;0.60;;;7.60;99.90;;;;;;5048308;28;20315;-83
2022/03/30 08:13:57;;;;;;;0.30;0.30;;;7.70;99.90;;;;;;5082770;28;20189;-84
2022/03/30 08:16:23;;;;;;;0.87;0.70;;;7.40;99.90;;;;;;5049257;28;20228;-83
2022/03/30 08:18:49;;;;;;;12.83;0.50;;;7.30;99.90;;;;;;5065640;28;20272;-82
2022/03/30 08:23:59;;;;;;;0.67;0.67;;;7.90;99.90;;;;;;5066566;28;20705;-82
2022/03/30 08:26:25;;;;;;;2.47;1.17;;;8.20;99.90;;;;;;5047825;28;20197;-83
2022/03/30 08:28:51;;;;;;;4.27;0.80;;;8.20;99.90;;;;;;5048910;28;20189;-83
2022/03/30 08:31:16;;;;;;;0.73;0.73;;;8.20;99.90;;;;;;5081721;28;20263;-83
2022/03/30 08:33:42;;;;;;;0.60;0.60;;;7.80;99.90;;;;;;5081426;28;20221;-83
2022/03/30 08:36:08;;;;;;;3.03;0.43;;;7.80;99.90;;;;;;5065448;28;20592;-86
2022/03/30 08:38:34;;;;;;;0.37;0.37;;;8.20;99.90;;;;;;5082076;28;21029;-88
2022/03/30 08:41:00;;;;;;;0.23;0.23;;;8.70;99.90;;;;;;5065745;28;20212;-83
2022/03/30 08:43:27;;;;;;;0.30;0.30;;;8.60;99.90;;;;;;5039550;28;20256;-84
2022/03/30 08:45:56;;;;;;;0.37;0.37;;;8.60;99.90;;;;;;5065904;28;20578;-84
2022/03/30 08:48:22;;;;;;;0.40;0.40;;;8.70;99.90;;;;;;5060949;28;20222;-84
2022/03/30 08:50:50;;;;;;;3.20;0.40;;;8.90;99.90;;;;;;5064279;28;20221;-84
2022/03/30 08:53:18;;;;;;;0.93;0.93;;;9.00;99.90;;;;;;5064911;28;20330;-84
2022/03/30 08:55:44;;;;;;;0.30;0.30;;;9.30;99.90;;;;;;5063262;28;20327;-86
2022/03/30 08:58:10;;;;;;;1.40;0.40;;;8.90;99.90;;;;;;5061853;28;20233;-84
2022/03/30 09:00:36;;;;;;;5.40;0.90;;;9.00;99.90;;;;;;5044899;28;20681;-83
2022/03/30 09:03:03;;;;;;;1.03;0.40;;;9.30;99.90;;;;;;5044695;28;20228;-85
2022/03/30 09:05:38;;;;;;;0.87;0.53;;;9.50;99.90;;;;;;5071086;28;20197;-84
2022/03/30 09:08:25;;;;;;;0.20;0.20;;;9.80;99.90;;;;;;5064434;28;20201;-86
2022/03/30 09:10:53;;;;;;;0.50;0.50;;;10.30;99.90;;;;;;5064316;28;20225;-84
2022/03/30 09:13:19;;;;;;;0.40;0.30;;;10.50;99.90;;;;;;5063903;28;20209;-84
2022/03/30 09:15:46;;;;;;;2.63;0.70;;;10.40;99.90;;;;;;5047773;28;20282;-83
2022/03/30 09:18:14;;;;;;;2.97;0.43;;;10.20;99.90;;;;;;5065914;28;20259;-85
2022/03/30 09:20:43;;;;;;;0.50;0.50;;;10.10;99.90;;;;;;5047501;28;20184;-84
2022/03/30 09:23:10;;;;;;;0.70;0.70;;;10.20;99.90;;;;;;5045607;28;20711;-84
2022/03/30 09:25:36;;;;;;;2.00;0.60;;;10.20;99.90;;;;;;5051012;28;20217;-82
2022/03/30 09:28:03;;;;;;;0.20;0.20;;;10.10;99.90;;;;;;5060442;28;20303;-85
2022/03/30 09:30:29;;;;;;;0.20;0.20;;;9.90;99.90;;;;;;5077187;28;20308;-86
2022/03/30 09:32:58;;;;;;;0.60;0.60;;;10.20;99.90;;;;;;5044477;28;20221;-83
2022/03/30 09:35:24;;;;;;;0.30;0.30;;;10.20;99.90;;;;;;5070608;28;20193;-84
2022/03/30 09:38:10;;;;;;;2.83;0.37;;;11.10;99.90;;;;;;5065766;28;20216;-86
2022/03/30 09:40:47;;;;;;;0.30;0.30;;;11.60;99.90;;;;;;5065120;28;20278;-84
2022/03/30 09:43:15;;;;;;;0.63;0.50;;;12.30;99.90;;;;;;5080322;28;20270;-84
2022/03/30 09:45:41;;;;;;;0.90;0.33;;;12.30;99.90;;;;;;5064298;28;20276;-84
2022/03/30 09:48:20;;;;;;;0.40;0.40;;;11.00;99.90;;;;;;5046478;28;20721;-84
2022/03/30 09:50:57;;;;;;;1.87;0.30;;;10.30;99.90;;;;;;5065222;28;20213;-84
2022/03/30 09:53:26;;;;;;;0.30;0.30;;;9.40;99.90;;;;;;5046577;28;20316;-82
2022/03/30 09:55:55;;;;;;;2.00;0.50;;;9.00;99.90;;;;;;5045581;28;20189;-83
2022/03/30 09:58:23;;;;;;;0.27;0.27;;;10.10;99.90;;;;;;5045762;28;20232;-84
2022/03/30 10:01:05;;;;;;;0.30;0.30;;;11.50;99.90;;;;;;5078961;28;20233;-84
2022/03/30 10:03:43;;;;;;;1.80;0.50;;;10.80;99.90;;;;;;5053817;28;20216;-83
2022/03/30 10:06:11;;;;;;;0.20;0.20;;;9.90;99.90;;;;;;5063148;28;20216;-84
2022/03/30 10:08:39;;;;;;;0.27;0.27;;;10.20;99.90;;;;;;5064545;28;20270;-87
2022/03/30 10:11:05;;;;;;;0.50;0.50;;;10.40;99.90;;;;;;5046940;28;20261;-86
2022/03/30 10:13:31;;;;;;;0.20;0.20;;;10.00;99.90;;;;;;5047043;28;20244;-83
2022/03/30 10:15:58;;;;;;;0.53;0.30;;;8.70;99.90;;;;;;5053664;28;20247;-84
2022/03/30 10:18:25;;;;;;;0.50;0.50;;;8.30;99.90;;;;;;5062832;28;20237;-83
2022/03/30 10:21:04;;;;;;;2.10;0.40;;;9.40;99.90;;;;;;5046579;28;20209;-84
2022/03/30 10:23:47;;;;;;;0.93;0.30;;;10.70;99.90;;;;;;5046490;28;20177;-84
2022/03/30 10:26:31;;;;;;;0.30;0.30;;;11.20;99.90;;;;;;5046852;28;20649;-82
2022/03/30 10:29:05;;;;;;;0.17;0.17;;;10.70;99.90;;;;;;5080823;28;20216;-84
2022/03/30 10:31:31;;;;;;;1.40;0.37;;;10.90;99.90;;;;;;5064545;28;20212;-85
2022/03/30 10:33:57;;;;;;;0.40;0.40;;;10.30;99.90;;;;;;5046398;28;20685;-83
2022/03/30 10:36:34;;;;;;;0.40;0.40;;;9.70;99.90;;;;;;5061913;28;20231;-85
2022/03/30 10:39:17;;;;;;;0.17;0.17;;;9.20;99.90;;;;;;5046017;28;20263;-87
2022/03/30 10:42:09;;;;;;;2.30;0.30;;;8.90;99.90;;;;;;5062359;28;20188;-83
2022/03/30 10:44:49;;;;;;;5.00;0.93;;;9.30;99.90;;;;;;5046886;28;20205;-85
2022/03/30 10:47:18;;;;;;;0.20;0.20;;;9.30;99.90;;;;;;5046010;28;20319;-86
2022/03/30 10:49:54;;;;;;;0.33;0.33;;;9.40;99.90;;;;;;5045984;28;20225;-84
2022/03/30 10:52:44;;;;;;;3.83;0.60;;;9.80;99.90;;;;;;5045176;28;21015;-84
2022/03/30 10:55:12;;;;;;;0.30;0.30;;;9.50;99.90;;;;;;5045858;28;20243;-85
2022/03/30 10:57:58;;;;;;;1.00;0.73;;;9.20;99.90;;;;;;5063956;28;20320;-83
2022/03/30 11:00:27;;;;;;;0.40;0.40;;;9.00;99.90;;;;;;5062097;28;20213;-85
2022/03/30 11:03:20;;;;;;;0.23;0.23;;;9.10;99.90;;;;;;5045556;28;20217;-84
2022/03/30 11:06:01;;;;;;;0.33;0.33;;;8.60;99.90;;;;;;5040731;28;20225;-85
2022/03/30 11:08:33;;;;;;;0.40;0.40;;;8.60;99.90;;;;;;5046488;28;20259;-84
2022/03/30 11:11:03;;;;;;;0.50;0.40;;;8.80;99.90;;;;;;5064816;28;20205;-86
2022/03/30 11:13:29;;;;;;;0.20;0.20;;;8.70;99.90;;;;;;5066725;28;20221;-86
2022/03/30 11:15:59;;;;;;;5.60;0.43;;;9.10;99.90;;;;;;5049257;28;20216;-86
2022/03/30 11:18:27;;;;;;;6.07;0.30;;;9.10;99.90;;;;;;5067216;28;20233;-88
2022/03/30 11:21:18;;;;;;;0.20;0.20;;;9.30;99.90;;;;;;5064133;28;20224;-86
2022/03/30 11:24:07;;;;;;;0.30;0.30;;;8.70;99.90;;;;;;5065909;28;20224;-85
2022/03/30 11:26:48;;;;;;;0.30;0.30;;;8.50;99.90;;;;;;5059382;28;20181;-85
2022/03/30 11:29:52;;;;;;;0.70;0.30;;;8.60;99.90;;;;;;5049724;28;20251;-86
2022/03/30 11:32:34;;;;;;;0.30;0.30;;;9.00;99.90;;;;;;5065207;28;20354;-85
2022/03/30 11:35:02;;;;;;;1.60;0.93;;;9.30;99.90;;;;;;5067367;28;20259;-86
2022/03/30 11:37:33;;;;;;;0.60;0.60;;;10.00;99.90;;;;;;5072631;28;20225;-84
2022/03/30 11:40:22;;;;;;;4.63;0.83;;;10.10;99.90;;;;;;5067230;28;20225;-86
2022/03/30 11:42:52;;;;;;;0.30;0.30;;;10.00;99.90;;;;;;5055724;28;20210;-86
2022/03/30 11:45:23;;;;;;;0.40;0.40;;;9.80;99.90;;;;;;5064371;28;20232;-84
2022/03/30 11:47:56;;;;;;;0.27;0.27;;;9.90;99.90;;;;;;5048135;28;20259;-85
2022/03/30 11:50:31;;;;;;;2.20;1.87;;;9.70;99.90;;;;;;5048100;28;20181;-84
2022/03/30 11:53:04;;;;;;;1.27;0.30;;;9.40;99.90;;;;;;5063283;28;20220;-85
2022/03/30 11:55:54;;;;;;;0.60;0.60;;;9.30;99.90;;;;;;5063635;28;20224;-84
2022/03/30 11:58:34;;;;;;;0.17;0.17;;;9.60;99.90;;;;;;5058951;28;20267;-84
2022/03/30 12:01:04;;;;;;;0.20;0.20;;;9.90;99.90;;;;;;5065989;28;20274;-84
2022/03/30 12:03:30;;;;;;;0.40;0.40;;;9.50;99.90;;;;;;5047265;28;20217;-85
2022/03/30 12:05:58;;;;;;;0.33;0.33;;;9.50;99.90;;;;;;5046757;28;20307;-84
2022/03/30 12:08:25;;;;;;;0.63;0.40;;;9.60;99.90;;;;;;5080492;28;20262;-84
2022/03/30 12:10:56;;;;;;;0.40;0.30;;;9.10;99.90;;;;;;5064745;28;20196;-84
2022/03/30 12:13:25;;;;;;;1.33;0.93;;;9.30;99.90;;;;;;5064700;28;20286;-85
2022/03/30 12:16:05;;;;;;;0.40;0.40;;;9.50;99.90;;;;;;5065264;28;20251;-86
2022/03/30 12:18:31;;;;;;;0.70;0.70;;;9.30;99.90;;;;;;5063196;28;20382;-84
2022/03/30 12:21:02;;;;;;;0.30;0.30;;;9.60;99.90;;;;;;5064951;28;20221;-86
2022/03/30 12:23:28;;;;;;;0.40;0.40;;;9.60;99.90;;;;;;5056172;28;20204;-86
2022/03/30 12:25:54;;;;;;;0.30;0.30;;;9.00;99.90;;;;;;5048516;28;20902;-86
2022/03/30 12:28:30;;;;;;;0.50;0.50;;;9.10;99.90;;;;;;5064683;28;20224;-87
2022/03/30 12:30:56;;;;;;;1.60;0.60;;;9.30;99.90;;;;;;5064280;28;20244;-88
2022/03/30 12:33:22;;;;;;;0.30;0.30;;;9.60;99.90;;;;;;5047366;28;20260;-85
2022/03/30 12:35:48;;;;;;;0.30;0.30;;;9.00;99.90;;;;;;5063228;28;20300;-86
2022/03/30 12:38:17;;;;;;;0.47;0.47;;;8.80;99.90;;;;;;5063237;28;20580;-85
2022/03/30 12:40:43;;;;;;;0.67;0.67;;;8.90;99.90;;;;;;5061746;28;20224;-86
2022/03/30 12:43:10;;;;;;;0.30;0.30;;;9.10;99.90;;;;;;5062567;28;20217;-87
2022/03/30 12:45:59;;;;;;;0.20;0.20;;;8.90;99.90;;;;;;5062394;28;20228;-88
2022/03/30 12:48:32;;;;;;;0.20;0.20;;;8.70;99.90;;;;;;5063539;28;20241;-90
2022/03/30 12:51:00;;;;;;;3.40;0.93;;;8.80;99.90;;;;;;5063788;28;20217;-88
2022/03/30 12:53:32;;;;;;;0.50;0.50;;;8.70;99.90;;;;;;5062928;28;20233;-87
2022/03/30 12:56:19;;;;;;;0.30;0.30;;;8.80;99.90;;;;;;5038160;28;20186;-87
2022/03/30 12:58:50;;;;;;;0.20;0.20;;;9.00;99.90;;;;;;5046564;28;20717;-88
2022/03/30 13:01:39;;;;;;;2.53;0.40;;;9.20;99.90;;;;;;5045810;28;20232;-87
2022/03/30 13:04:26;;;;;;;0.20;0.20;;;8.80;99.90;;;;;;5064483;28;20625;-86
2022/03/30 13:07:13;;;;;;;0.20;0.20;;;8.50;99.90;;;;;;5047647;28;20578;-88
2022/03/30 13:10:07;;;;;;;0.50;0.40;;;8.70;99.90;;;;;;5047263;28;20681;-88
2022/03/30 13:12:42;;;;;;;0.30;0.30;;;8.90;99.90;;;;;;5045290;28;20268;-87
2022/03/30 13:15:13;;;;;;;0.50;0.50;;;8.70;99.90;;;;;;5064267;28;20221;-85